This is the latest recevied weather packets stored in our database for station/object K5RWS. If no packets are shown the sender has not sent any weather packets the latest 1 day(s).
| Time | Temp. | Humidity | Pressure | Rain* | Wind** | Luminosity | Snow |
|---|---|---|---|---|---|---|---|
| 1778031702 | 13.89° C | 49% | 1012.6 hPa | 0 mm | 5.36 m/s, 311° | 4 W/m² | - |
| 1778031400 | 15° C | 48% | 1012.3 hPa | 0 mm | 2.68 m/s, 340° | 4 W/m² | - |
| 1778031097 | 16.11° C | 41% | 1012.1 hPa | 0 mm | 1.34 m/s, 238° | 4 W/m² | - |
| 1778030793 | 16.11° C | 41% | 1012.1 hPa | 0 mm | 1.79 m/s, 219° | 5 W/m² | - |
| 1778030490 | 16.11° C | 41% | 1012 hPa | 0 mm | 0.45 m/s, 239° | 8 W/m² | - |
| 1778030187 | 16.11° C | 40% | 1012 hPa | 0 mm | 1.34 m/s, 241° | 12 W/m² | - |
| 1778029883 | 16.11° C | 40% | 1011.9 hPa | 0 mm | 1.79 m/s, 246° | 16 W/m² | - |
| 1778029582 | 16.67° C | 40% | 1011.9 hPa | 0 mm | 1.34 m/s, 229° | 28 W/m² | - |
| 1778029279 | 16.67° C | 39% | 1011.9 hPa | 0 mm | 1.34 m/s, 235° | 30 W/m² | - |
| 1778028976 | 16.67° C | 39% | 1012 hPa | 0 mm | 2.68 m/s, 197° | 41 W/m² | - |
| 1778028672 | 17.22° C | 38% | 1012 hPa | 0 mm | 2.68 m/s, 212° | 56 W/m² | - |
| 1778028369 | 17.22° C | 37% | 1011.9 hPa | 0 mm | 4.02 m/s, 229° | 70 W/m² | - |
| 1778028066 | 17.78° C | 37% | 1011.9 hPa | 0 mm | 2.24 m/s, 236° | 71 W/m² | - |
| 1778027762 | 18.33° C | 38% | 1012 hPa | 0 mm | 2.24 m/s, 232° | 106 W/m² | - |
| 1778027458 | 17.78° C | 38% | 1012 hPa | 0 mm | 2.24 m/s, 212° | 126 W/m² | - |
| 1778027154 | 17.78° C | 38% | 1011.6 hPa | 0 mm | 1.79 m/s, 212° | 180 W/m² | - |
| 1778026850 | 17.78° C | 38% | 1011.9 hPa | 0 mm | 1.79 m/s, 198° | 141 W/m² | - |
| 1778026547 | 17.78° C | 39% | 1012 hPa | 0 mm | 2.24 m/s, 199° | 154 W/m² | - |
| 1778026244 | 17.78° C | 39% | 1011.8 hPa | 0 mm | 1.79 m/s, 223° | 135 W/m² | - |
| 1778025942 | 17.78° C | 39% | 1011.8 hPa | 0 mm | 1.79 m/s, 212° | 151 W/m² | - |
| 1778025639 | 17.78° C | 38% | 1011.6 hPa | 0 mm | 0.89 m/s, 176° | 186 W/m² | - |
| 1778025337 | 17.78° C | 38% | 1011.8 hPa | 0 mm | 0.89 m/s, 201° | 221 W/m² | - |
| 1778025033 | 17.78° C | 39% | 1011.9 hPa | 0 mm | 0.89 m/s, 162° | 216 W/m² | - |
| 1778024730 | 17.22° C | 40% | 1011.5 hPa | 0 mm | 0.89 m/s, 220° | 220 W/m² | - |
| 1778024427 | 17.78° C | 39% | 1011.9 hPa | 0 mm | 0.89 m/s, 124° | 236 W/m² | - |
* Rain latest hour (hover to see other rain measurements)
** Current wind speed in m/s (hover to see current wind gust speed)